sensor_id;sensor_type;location;lat;lon;timestamp;temperature;humidity
58993;DHT22;44782;0.000;0.000;2023-02-19T00:00:49;17.40;56.30
58993;DHT22;44782;0.000;0.000;2023-02-19T00:03:04;17.40;56.50
58993;DHT22;44782;0.000;0.000;2023-02-19T00:05:20;17.40;56.40
58993;DHT22;44782;0.000;0.000;2023-02-19T00:07:35;17.40;56.40
58993;DHT22;44782;0.000;0.000;2023-02-19T00:09:51;17.40;56.40
58993;DHT22;44782;0.000;0.000;2023-02-19T00:12:07;17.40;56.40
58993;DHT22;44782;0.000;0.000;2023-02-19T00:14:22;17.40;56.30
58993;DHT22;44782;0.000;0.000;2023-02-19T00:16:39;17.40;56.30
58993;DHT22;44782;0.000;0.000;2023-02-19T00:18:55;17.40;56.40
58993;DHT22;44782;0.000;0.000;2023-02-19T00:21:12;17.40;56.40
58993;DHT22;44782;0.000;0.000;2023-02-19T00:23:28;17.30;56.30
58993;DHT22;44782;0.000;0.000;2023-02-19T00:25:44;17.30;56.30
58993;DHT22;44782;0.000;0.000;2023-02-19T00:28:00;17.40;56.40
58993;DHT22;44782;0.000;0.000;2023-02-19T00:30:15;17.30;56.40
58993;DHT22;44782;0.000;0.000;2023-02-19T00:32:31;17.30;56.30
58993;DHT22;44782;0.000;0.000;2023-02-19T00:34:47;17.30;56.30
58993;DHT22;44782;0.000;0.000;2023-02-19T00:37:02;17.30;56.40
58993;DHT22;44782;0.000;0.000;2023-02-19T00:39:18;17.30;56.40
58993;DHT22;44782;0.000;0.000;2023-02-19T00:41:35;17.30;56.40
58993;DHT22;44782;0.000;0.000;2023-02-19T00:44:00;17.30;56.40
58993;DHT22;44782;0.000;0.000;2023-02-19T00:46:18;17.30;56.30
58993;DHT22;44782;0.000;0.000;2023-02-19T00:48:34;17.20;56.40
58993;DHT22;44782;0.000;0.000;2023-02-19T00:50:50;17.20;56.40
58993;DHT22;44782;0.000;0.000;2023-02-19T00:53:05;17.20;57.10
58993;DHT22;44782;0.000;0.000;2023-02-19T00:55:21;17.20;56.40
58993;DHT22;44782;0.000;0.000;2023-02-19T00:57:37;17.20;56.40
58993;DHT22;44782;0.000;0.000;2023-02-19T00:59:52;17.20;56.40
58993;DHT22;44782;0.000;0.000;2023-02-19T01:02:08;17.20;56.40
58993;DHT22;44782;0.000;0.000;2023-02-19T01:04:24;17.20;56.40
58993;DHT22;44782;0.000;0.000;2023-02-19T01:06:39;17.20;56.40
58993;DHT22;44782;0.000;0.000;2023-02-19T01:08:55;17.20;56.40
58993;DHT22;44782;0.000;0.000;2023-02-19T01:11:11;17.20;56.50
58993;DHT22;44782;0.000;0.000;2023-02-19T01:13:28;17.20;56.40
58993;DHT22;44782;0.000;0.000;2023-02-19T01:15:43;17.20;56.50
58993;DHT22;44782;0.000;0.000;2023-02-19T01:17:59;17.10;56.40
58993;DHT22;44782;0.000;0.000;2023-02-19T01:20:15;17.10;56.40
58993;DHT22;44782;0.000;0.000;2023-02-19T01:22:30;17.10;56.40
58993;DHT22;44782;0.000;0.000;2023-02-19T01:24:46;17.10;56.50
58993;DHT22;44782;0.000;0.000;2023-02-19T01:27:02;17.10;56.50
58993;DHT22;44782;0.000;0.000;2023-02-19T01:29:18;17.10;56.50
58993;DHT22;44782;0.000;0.000;2023-02-19T01:31:33;17.10;56.40
58993;DHT22;44782;0.000;0.000;2023-02-19T01:33:55;17.10;56.50
58993;DHT22;44782;0.000;0.000;2023-02-19T01:36:11;17.10;56.50
58993;DHT22;44782;0.000;0.000;2023-02-19T01:38:27;17.10;56.50
58993;DHT22;44782;0.000;0.000;2023-02-19T01:40:42;17.00;56.40
58993;DHT22;44782;0.000;0.000;2023-02-19T01:42:58;17.10;56.50
58993;DHT22;44782;0.000;0.000;2023-02-19T01:47:40;17.10;56.40
58993;DHT22;44782;0.000;0.000;2023-02-19T01:49:56;17.00;56.50
58993;DHT22;44782;0.000;0.000;2023-02-19T01:52:20;17.00;56.50
58993;DHT22;44782;0.000;0.000;2023-02-19T01:54:39;17.00;56.40
58993;DHT22;44782;0.000;0.000;2023-02-19T01:56:56;17.00;56.40
58993;DHT22;44782;0.000;0.000;2023-02-19T01:59:13;17.00;56.40
58993;DHT22;44782;0.000;0.000;2023-02-19T02:01:29;17.00;56.50
58993;DHT22;44782;0.000;0.000;2023-02-19T02:03:47;17.00;56.50
58993;DHT22;44782;0.000;0.000;2023-02-19T02:06:25;17.00;56.40
58993;DHT22;44782;0.000;0.000;2023-02-19T02:08:43;17.00;56.30
58993;DHT22;44782;0.000;0.000;2023-02-19T02:11:18;17.00;56.50
58993;DHT22;44782;0.000;0.000;2023-02-19T02:13:35;16.90;56.50
58993;DHT22;44782;0.000;0.000;2023-02-19T02:16:12;17.00;56.50
58993;DHT22;44782;0.000;0.000;2023-02-19T02:29:13;16.90;56.50
58993;DHT22;44782;0.000;0.000;2023-02-19T02:31:39;16.90;56.30
58993;DHT22;44782;0.000;0.000;2023-02-19T02:36:16;16.90;56.40
58993;DHT22;44782;0.000;0.000;2023-02-19T02:38:39;16.90;56.40
58993;DHT22;44782;0.000;0.000;2023-02-19T02:40:56;16.90;56.30
58993;DHT22;44782;0.000;0.000;2023-02-19T02:43:12;16.90;56.40
58993;DHT22;44782;0.000;0.000;2023-02-19T02:45:31;16.90;56.40
58993;DHT22;44782;0.000;0.000;2023-02-19T02:47:54;16.90;56.30
58993;DHT22;44782;0.000;0.000;2023-02-19T02:50:30;16.90;56.40
58993;DHT22;44782;0.000;0.000;2023-02-19T02:52:49;16.90;56.20
58993;DHT22;44782;0.000;0.000;2023-02-19T02:55:29;16.90;56.40
58993;DHT22;44782;0.000;0.000;2023-02-19T02:57:45;16.90;56.40
58993;DHT22;44782;0.000;0.000;2023-02-19T03:00:01;16.80;56.30
58993;DHT22;44782;0.000;0.000;2023-02-19T03:02:21;16.80;56.30
58993;DHT22;44782;0.000;0.000;2023-02-19T03:05:08;16.80;56.30
58993;DHT22;44782;0.000;0.000;2023-02-19T03:10:12;16.80;56.30
58993;DHT22;44782;0.000;0.000;2023-02-19T03:12:30;16.80;56.30
58993;DHT22;44782;0.000;0.000;2023-02-19T03:15:08;16.80;56.30
58993;DHT22;44782;0.000;0.000;2023-02-19T03:17:49;16.80;56.20
58993;DHT22;44782;0.000;0.000;2023-02-19T03:20:26;16.80;56.30
58993;DHT22;44782;0.000;0.000;2023-02-19T03:22:43;16.80;56.30
58993;DHT22;44782;0.000;0.000;2023-02-19T03:25:06;16.80;56.20
58993;DHT22;44782;0.000;0.000;2023-02-19T03:27:43;16.80;56.30
58993;DHT22;44782;0.000;0.000;2023-02-19T03:30:04;16.70;56.20
58993;DHT22;44782;0.000;0.000;2023-02-19T03:35:07;16.80;56.00
58993;DHT22;44782;0.000;0.000;2023-02-19T03:39:42;16.70;56.20
58993;DHT22;44782;0.000;0.000;2023-02-19T03:42:06;16.70;56.20
58993;DHT22;44782;0.000;0.000;2023-02-19T03:44:45;16.70;56.10
58993;DHT22;44782;0.000;0.000;2023-02-19T03:47:13;16.70;56.00
58993;DHT22;44782;0.000;0.000;2023-02-19T04:00:12;16.70;56.00
58993;DHT22;44782;0.000;0.000;2023-02-19T04:02:38;16.70;56.10
58993;DHT22;44782;0.000;0.000;2023-02-19T04:05:15;16.70;56.10
58993;DHT22;44782;0.000;0.000;2023-02-19T04:07:34;16.70;56.00
58993;DHT22;44782;0.000;0.000;2023-02-19T04:09:51;16.70;56.10
58993;DHT22;44782;0.000;0.000;2023-02-19T04:12:09;16.70;56.10
58993;DHT22;44782;0.000;0.000;2023-02-19T04:16:57;16.70;56.00
58993;DHT22;44782;0.000;0.000;2023-02-19T04:19:16;16.60;56.00
58993;DHT22;44782;0.000;0.000;2023-02-19T04:21:35;16.60;56.00
58993;DHT22;44782;0.000;0.000;2023-02-19T04:23:51;16.60;56.00
58993;DHT22;44782;0.000;0.000;2023-02-19T04:26:07;16.60;56.00
58993;DHT22;44782;0.000;0.000;2023-02-19T04:28:23;16.60;56.00
58993;DHT22;44782;0.000;0.000;2023-02-19T04:30:39;16.60;56.00
58993;DHT22;44782;0.000;0.000;2023-02-19T04:32:55;16.60;56.00
58993;DHT22;44782;0.000;0.000;2023-02-19T04:35:11;16.60;56.00
58993;DHT22;44782;0.000;0.000;2023-02-19T04:37:26;16.60;56.00
58993;DHT22;44782;0.000;0.000;2023-02-19T04:39:42;16.60;56.00
58993;DHT22;44782;0.000;0.000;2023-02-19T04:41:58;16.60;56.00
58993;DHT22;44782;0.000;0.000;2023-02-19T04:44:13;16.60;55.90
58993;DHT22;44782;0.000;0.000;2023-02-19T04:46:29;16.60;55.90
58993;DHT22;44782;0.000;0.000;2023-02-19T04:48:45;16.60;55.90
58993;DHT22;44782;0.000;0.000;2023-02-19T04:51:06;16.60;55.90
58993;DHT22;44782;0.000;0.000;2023-02-19T04:53:22;16.60;55.90
58993;DHT22;44782;0.000;0.000;2023-02-19T04:55:38;16.60;55.90
58993;DHT22;44782;0.000;0.000;2023-02-19T04:57:54;16.60;55.90
58993;DHT22;44782;0.000;0.000;2023-02-19T05:00:10;16.60;55.90
58993;DHT22;44782;0.000;0.000;2023-02-19T05:02:26;16.60;55.90
58993;DHT22;44782;0.000;0.000;2023-02-19T05:04:42;16.60;55.90
58993;DHT22;44782;0.000;0.000;2023-02-19T05:06:57;16.60;55.90
58993;DHT22;44782;0.000;0.000;2023-02-19T05:09:13;16.60;55.90
58993;DHT22;44782;0.000;0.000;2023-02-19T05:11:29;16.60;55.90
58993;DHT22;44782;0.000;0.000;2023-02-19T05:13:44;16.60;55.90
58993;DHT22;44782;0.000;0.000;2023-02-19T05:16:03;16.60;56.60
58993;DHT22;44782;0.000;0.000;2023-02-19T05:18:19;16.50;55.80
58993;DHT22;44782;0.000;0.000;2023-02-19T05:20:35;16.50;55.80
58993;DHT22;44782;0.000;0.000;2023-02-19T05:22:51;16.60;55.90
58993;DHT22;44782;0.000;0.000;2023-02-19T05:25:06;16.60;55.90
58993;DHT22;44782;0.000;0.000;2023-02-19T05:27:22;16.60;55.90
58993;DHT22;44782;0.000;0.000;2023-02-19T05:29:38;16.60;55.90
58993;DHT22;44782;0.000;0.000;2023-02-19T05:31:54;16.60;55.90
58993;DHT22;44782;0.000;0.000;2023-02-19T05:34:09;16.60;55.90
58993;DHT22;44782;0.000;0.000;2023-02-19T05:36:25;16.60;55.80
58993;DHT22;44782;0.000;0.000;2023-02-19T05:38:41;16.60;55.80
58993;DHT22;44782;0.000;0.000;2023-02-19T05:41:15;16.60;55.80
58993;DHT22;44782;0.000;0.000;2023-02-19T05:43:31;16.60;55.60
58993;DHT22;44782;0.000;0.000;2023-02-19T05:45:46;16.60;55.90
58993;DHT22;44782;0.000;0.000;2023-02-19T05:48:04;16.60;55.90
58993;DHT22;44782;0.000;0.000;2023-02-19T05:50:20;16.60;55.80
58993;DHT22;44782;0.000;0.000;2023-02-19T05:52:35;16.60;55.90
58993;DHT22;44782;0.000;0.000;2023-02-19T05:54:51;16.70;56.00
58993;DHT22;44782;0.000;0.000;2023-02-19T05:57:06;16.70;55.90
58993;DHT22;44782;0.000;0.000;2023-02-19T05:59:24;16.70;55.90
58993;DHT22;44782;0.000;0.000;2023-02-19T06:01:39;16.70;55.90
58993;DHT22;44782;0.000;0.000;2023-02-19T06:03:56;16.70;55.90
58993;DHT22;44782;0.000;0.000;2023-02-19T06:06:16;16.80;55.90
58993;DHT22;44782;0.000;0.000;2023-02-19T06:08:32;16.80;55.70
58993;DHT22;44782;0.000;0.000;2023-02-19T06:10:48;16.80;55.80
58993;DHT22;44782;0.000;0.000;2023-02-19T06:13:03;16.90;55.80
58993;DHT22;44782;0.000;0.000;2023-02-19T06:15:20;16.90;55.80
58993;DHT22;44782;0.000;0.000;2023-02-19T06:17:36;16.90;55.70
58993;DHT22;44782;0.000;0.000;2023-02-19T06:19:52;16.90;55.70
58993;DHT22;44782;0.000;0.000;2023-02-19T06:22:08;17.00;55.70
58993;DHT22;44782;0.000;0.000;2023-02-19T06:24:24;17.00;55.70
58993;DHT22;44782;0.000;0.000;2023-02-19T06:26:39;17.00;55.60
58993;DHT22;44782;0.000;0.000;2023-02-19T06:28:55;17.00;55.60
58993;DHT22;44782;0.000;0.000;2023-02-19T06:31:11;17.00;55.50
58993;DHT22;44782;0.000;0.000;2023-02-19T06:33:27;17.00;55.50
58993;DHT22;44782;0.000;0.000;2023-02-19T06:35:43;17.10;55.50
58993;DHT22;44782;0.000;0.000;2023-02-19T06:37:59;17.10;55.50
58993;DHT22;44782;0.000;0.000;2023-02-19T06:40:15;17.10;55.50
58993;DHT22;44782;0.000;0.000;2023-02-19T06:42:31;17.10;55.40
58993;DHT22;44782;0.000;0.000;2023-02-19T06:44:47;17.20;55.50
58993;DHT22;44782;0.000;0.000;2023-02-19T06:47:03;17.10;55.30
58993;DHT22;44782;0.000;0.000;2023-02-19T06:49:18;17.10;55.40
58993;DHT22;44782;0.000;0.000;2023-02-19T06:51:34;17.10;55.30
58993;DHT22;44782;0.000;0.000;2023-02-19T06:53:50;17.10;55.30
58993;DHT22;44782;0.000;0.000;2023-02-19T06:56:18;17.10;55.30
58993;DHT22;44782;0.000;0.000;2023-02-19T06:58:35;17.10;55.20
58993;DHT22;44782;0.000;0.000;2023-02-19T07:00:52;17.10;55.30
58993;DHT22;44782;0.000;0.000;2023-02-19T07:03:08;17.10;55.20
58993;DHT22;44782;0.000;0.000;2023-02-19T07:05:24;17.10;55.20
58993;DHT22;44782;0.000;0.000;2023-02-19T07:07:39;17.10;55.10
58993;DHT22;44782;0.000;0.000;2023-02-19T07:09:55;17.10;55.10
58993;DHT22;44782;0.000;0.000;2023-02-19T07:12:11;17.10;55.00
58993;DHT22;44782;0.000;0.000;2023-02-19T07:14:27;17.10;55.00
58993;DHT22;44782;0.000;0.000;2023-02-19T07:16:44;17.10;55.70
58993;DHT22;44782;0.000;0.000;2023-02-19T07:19:02;17.10;55.00
58993;DHT22;44782;0.000;0.000;2023-02-19T07:21:18;17.10;55.00
58993;DHT22;44782;0.000;0.000;2023-02-19T07:23:34;17.00;54.90
58993;DHT22;44782;0.000;0.000;2023-02-19T07:25:49;17.10;55.00
58993;DHT22;44782;0.000;0.000;2023-02-19T07:28:05;17.00;54.90
58993;DHT22;44782;0.000;0.000;2023-02-19T07:30:21;17.10;55.00
58993;DHT22;44782;0.000;0.000;2023-02-19T07:32:40;17.00;54.90
58993;DHT22;44782;0.000;0.000;2023-02-19T07:34:56;17.00;54.80
58993;DHT22;44782;0.000;0.000;2023-02-19T07:37:12;17.00;54.90
58993;DHT22;44782;0.000;0.000;2023-02-19T07:39:27;17.00;54.90
58993;DHT22;44782;0.000;0.000;2023-02-19T07:41:43;17.00;54.90
58993;DHT22;44782;0.000;0.000;2023-02-19T07:43:59;17.00;54.90
58993;DHT22;44782;0.000;0.000;2023-02-19T07:46:14;17.00;54.90
58993;DHT22;44782;0.000;0.000;2023-02-19T07:48:30;17.00;54.80
58993;DHT22;44782;0.000;0.000;2023-02-19T07:50:57;17.00;54.80
58993;DHT22;44782;0.000;0.000;2023-02-19T07:53:13;17.00;54.50
58993;DHT22;44782;0.000;0.000;2023-02-19T07:55:30;17.00;54.80
58993;DHT22;44782;0.000;0.000;2023-02-19T07:57:46;17.00;54.70
58993;DHT22;44782;0.000;0.000;2023-02-19T08:00:02;17.00;55.40
58993;DHT22;44782;0.000;0.000;2023-02-19T08:02:19;17.00;54.70
58993;DHT22;44782;0.000;0.000;2023-02-19T08:04:53;17.00;54.70
58993;DHT22;44782;0.000;0.000;2023-02-19T08:07:09;17.00;54.70
58993;DHT22;44782;0.000;0.000;2023-02-19T08:09:24;17.00;54.70
58993;DHT22;44782;0.000;0.000;2023-02-19T08:11:40;17.00;54.70
58993;DHT22;44782;0.000;0.000;2023-02-19T08:14:14;17.00;54.70
58993;DHT22;44782;0.000;0.000;2023-02-19T08:16:30;16.90;54.70
58993;DHT22;44782;0.000;0.000;2023-02-19T08:18:47;16.90;54.70
58993;DHT22;44782;0.000;0.000;2023-02-19T08:21:03;16.90;54.60
58993;DHT22;44782;0.000;0.000;2023-02-19T08:23:19;16.90;54.70
58993;DHT22;44782;0.000;0.000;2023-02-19T08:25:38;16.90;54.70
58993;DHT22;44782;0.000;0.000;2023-02-19T08:27:54;16.90;54.70
58993;DHT22;44782;0.000;0.000;2023-02-19T08:30:10;16.90;54.70
58993;DHT22;44782;0.000;0.000;2023-02-19T08:32:26;16.90;54.70
58993;DHT22;44782;0.000;0.000;2023-02-19T08:34:41;16.90;54.70
58993;DHT22;44782;0.000;0.000;2023-02-19T08:36:57;16.90;54.70
58993;DHT22;44782;0.000;0.000;2023-02-19T08:39:12;16.90;54.70
58993;DHT22;44782;0.000;0.000;2023-02-19T08:41:28;16.90;54.70
58993;DHT22;44782;0.000;0.000;2023-02-19T08:43:44;16.90;54.70
58993;DHT22;44782;0.000;0.000;2023-02-19T08:45:59;16.90;54.60
58993;DHT22;44782;0.000;0.000;2023-02-19T08:48:15;16.90;54.60
58993;DHT22;44782;0.000;0.000;2023-02-19T08:50:31;16.80;54.60
58993;DHT22;44782;0.000;0.000;2023-02-19T08:52:46;16.90;54.60
58993;DHT22;44782;0.000;0.000;2023-02-19T08:55:05;16.90;54.70
58993;DHT22;44782;0.000;0.000;2023-02-19T08:57:21;16.90;54.60
58993;DHT22;44782;0.000;0.000;2023-02-19T08:59:37;16.90;54.60
58993;DHT22;44782;0.000;0.000;2023-02-19T09:01:52;16.90;54.70
58993;DHT22;44782;0.000;0.000;2023-02-19T09:04:11;16.90;54.60
58993;DHT22;44782;0.000;0.000;2023-02-19T09:06:27;16.90;54.60
58993;DHT22;44782;0.000;0.000;2023-02-19T09:08:42;16.90;54.60
58993;DHT22;44782;0.000;0.000;2023-02-19T09:11:00;16.90;54.60
58993;DHT22;44782;0.000;0.000;2023-02-19T09:13:16;16.90;54.70
58993;DHT22;44782;0.000;0.000;2023-02-19T09:15:31;16.90;54.60
58993;DHT22;44782;0.000;0.000;2023-02-19T09:17:53;16.80;54.50
58993;DHT22;44782;0.000;0.000;2023-02-19T09:20:09;16.90;54.50
58993;DHT22;44782;0.000;0.000;2023-02-19T09:22:25;16.80;54.60
58993;DHT22;44782;0.000;0.000;2023-02-19T09:24:42;16.90;54.60
58993;DHT22;44782;0.000;0.000;2023-02-19T09:26:58;16.90;54.60
58993;DHT22;44782;0.000;0.000;2023-02-19T09:29:13;16.90;54.60
58993;DHT22;44782;0.000;0.000;2023-02-19T09:31:29;16.90;54.60
58993;DHT22;44782;0.000;0.000;2023-02-19T09:33:46;16.90;54.60
58993;DHT22;44782;0.000;0.000;2023-02-19T09:36:03;16.90;54.60
58993;DHT22;44782;0.000;0.000;2023-02-19T09:38:18;16.90;54.60
58993;DHT22;44782;0.000;0.000;2023-02-19T09:40:35;16.90;54.60
58993;DHT22;44782;0.000;0.000;2023-02-19T09:42:51;16.80;54.60
58993;DHT22;44782;0.000;0.000;2023-02-19T09:45:09;16.80;54.50
58993;DHT22;44782;0.000;0.000;2023-02-19T09:47:31;16.80;54.50
58993;DHT22;44782;0.000;0.000;2023-02-19T09:49:50;16.80;54.40
58993;DHT22;44782;0.000;0.000;2023-02-19T09:54:36;16.80;54.20
58993;DHT22;44782;0.000;0.000;2023-02-19T09:56:54;16.80;54.40
58993;DHT22;44782;0.000;0.000;2023-02-19T09:59:18;16.80;54.40
58993;DHT22;44782;0.000;0.000;2023-02-19T10:01:36;16.80;54.40
58993;DHT22;44782;0.000;0.000;2023-02-19T10:03:53;16.80;54.40
58993;DHT22;44782;0.000;0.000;2023-02-19T10:06:22;16.80;54.50
58993;DHT22;44782;0.000;0.000;2023-02-19T10:08:39;16.80;54.30
58993;DHT22;44782;0.000;0.000;2023-02-19T10:10:55;16.80;54.40
58993;DHT22;44782;0.000;0.000;2023-02-19T10:13:26;16.80;54.40
58993;DHT22;44782;0.000;0.000;2023-02-19T10:15:57;16.80;54.30
58993;DHT22;44782;0.000;0.000;2023-02-19T10:18:16;16.80;54.20
58993;DHT22;44782;0.000;0.000;2023-02-19T10:20:32;16.80;54.60
58993;DHT22;44782;0.000;0.000;2023-02-19T10:22:48;16.80;54.70
58993;DHT22;44782;0.000;0.000;2023-02-19T10:25:03;16.80;54.80
58993;DHT22;44782;0.000;0.000;2023-02-19T10:27:19;16.80;54.80
58993;DHT22;44782;0.000;0.000;2023-02-19T10:29:36;16.80;54.80
58993;DHT22;44782;0.000;0.000;2023-02-19T10:32:19;16.90;54.70
58993;DHT22;44782;0.000;0.000;2023-02-19T10:34:38;16.90;54.50
58993;DHT22;44782;0.000;0.000;2023-02-19T10:36:54;16.90;54.80
58993;DHT22;44782;0.000;0.000;2023-02-19T10:41:39;17.00;55.50
58993;DHT22;44782;0.000;0.000;2023-02-19T10:44:10;17.00;55.50
58993;DHT22;44782;0.000;0.000;2023-02-19T10:46:34;17.10;55.70
58993;DHT22;44782;0.000;0.000;2023-02-19T10:51:12;17.20;55.60
58993;DHT22;44782;0.000;0.000;2023-02-19T10:53:43;17.20;55.50
58993;DHT22;44782;0.000;0.000;2023-02-19T10:58:25;17.30;55.60
58993;DHT22;44782;0.000;0.000;2023-02-19T11:00:44;17.30;55.60
58993;DHT22;44782;0.000;0.000;2023-02-19T11:03:20;17.40;55.60
58993;DHT22;44782;0.000;0.000;2023-02-19T11:05:36;17.40;55.80
58993;DHT22;44782;0.000;0.000;2023-02-19T11:07:56;17.40;55.80
58993;DHT22;44782;0.000;0.000;2023-02-19T11:10:39;17.40;55.70
58993;DHT22;44782;0.000;0.000;2023-02-19T11:13:02;17.40;55.90
58993;DHT22;44782;0.000;0.000;2023-02-19T11:17:38;17.40;55.90
58993;DHT22;44782;0.000;0.000;2023-02-19T11:19:57;17.50;55.90
58993;DHT22;44782;0.000;0.000;2023-02-19T11:22:32;17.50;56.00
58993;DHT22;44782;0.000;0.000;2023-02-19T11:24:49;17.50;56.20
58993;DHT22;44782;0.000;0.000;2023-02-19T11:27:18;17.50;56.00
58993;DHT22;44782;0.000;0.000;2023-02-19T11:29:35;17.60;56.40
58993;DHT22;44782;0.000;0.000;2023-02-19T11:31:50;17.50;55.90
58993;DHT22;44782;0.000;0.000;2023-02-19T11:38:01;17.60;56.00
58993;DHT22;44782;0.000;0.000;2023-02-19T11:41:57;17.60;56.00
58993;DHT22;44782;0.000;0.000;2023-02-19T11:49:52;17.90;55.90
58993;DHT22;44782;0.000;0.000;2023-02-19T11:54:45;17.70;56.10
58993;DHT22;44782;0.000;0.000;2023-02-19T12:02:41;17.60;56.10
58993;DHT22;44782;0.000;0.000;2023-02-19T12:05:22;17.60;56.20
58993;DHT22;44782;0.000;0.000;2023-02-19T12:08:05;17.70;56.30
58993;DHT22;44782;0.000;0.000;2023-02-19T12:10:30;17.60;56.30
58993;DHT22;44782;0.000;0.000;2023-02-19T12:22:34;17.60;56.30
58993;DHT22;44782;0.000;0.000;2023-02-19T12:30:05;17.60;56.30
58993;DHT22;44782;0.000;0.000;2023-02-19T12:40:32;17.60;56.30
58993;DHT22;44782;0.000;0.000;2023-02-19T12:43:20;17.60;56.30
58993;DHT22;44782;0.000;0.000;2023-02-19T12:45:50;17.60;56.20
58993;DHT22;44782;0.000;0.000;2023-02-19T12:50:41;17.60;56.20
58993;DHT22;44782;0.000;0.000;2023-02-19T12:53:11;17.50;56.20
58993;DHT22;44782;0.000;0.000;2023-02-19T12:55:34;17.60;56.20
58993;DHT22;44782;0.000;0.000;2023-02-19T12:57:53;17.60;56.10
58993;DHT22;44782;0.000;0.000;2023-02-19T13:00:35;17.50;56.10
58993;DHT22;44782;0.000;0.000;2023-02-19T13:03:08;17.60;56.10
58993;DHT22;44782;0.000;0.000;2023-02-19T13:05:50;17.60;56.10
58993;DHT22;44782;0.000;0.000;2023-02-19T13:08:26;17.60;55.80
58993;DHT22;44782;0.000;0.000;2023-02-19T13:10:54;17.50;56.10
58993;DHT22;44782;0.000;0.000;2023-02-19T13:13:24;17.50;56.00
58993;DHT22;44782;0.000;0.000;2023-02-19T13:15:46;17.50;55.90
58993;DHT22;44782;0.000;0.000;2023-02-19T13:18:04;17.50;56.00
58993;DHT22;44782;0.000;0.000;2023-02-19T13:20:30;17.50;55.90
58993;DHT22;44782;0.000;0.000;2023-02-19T13:23:07;17.50;56.00
58993;DHT22;44782;0.000;0.000;2023-02-19T13:36:31;17.40;55.70
58993;DHT22;44782;0.000;0.000;2023-02-19T13:38:49;17.40;55.70
58993;DHT22;44782;0.000;0.000;2023-02-19T13:41:19;17.50;55.80
58993;DHT22;44782;0.000;0.000;2023-02-19T13:43:39;17.50;55.30
58993;DHT22;44782;0.000;0.000;2023-02-19T13:46:06;17.40;55.60
58993;DHT22;44782;0.000;0.000;2023-02-19T13:50:39;17.40;55.50
58993;DHT22;44782;0.000;0.000;2023-02-19T13:53:01;17.40;55.50
58993;DHT22;44782;0.000;0.000;2023-02-19T14:00:48;17.50;55.50
58993;DHT22;44782;0.000;0.000;2023-02-19T14:03:27;17.40;55.70
58993;DHT22;44782;0.000;0.000;2023-02-19T14:06:01;17.50;55.60
58993;DHT22;44782;0.000;0.000;2023-02-19T14:11:04;17.50;55.60
58993;DHT22;44782;0.000;0.000;2023-02-19T14:18:46;17.60;55.50
58993;DHT22;44782;0.000;0.000;2023-02-19T14:21:13;17.60;55.60
58993;DHT22;44782;0.000;0.000;2023-02-19T14:23:29;17.70;55.50
58993;DHT22;44782;0.000;0.000;2023-02-19T14:25:51;17.70;55.40
58993;DHT22;44782;0.000;0.000;2023-02-19T14:30:59;17.80;55.20
58993;DHT22;44782;0.000;0.000;2023-02-19T14:33:17;17.90;55.00
58993;DHT22;44782;0.000;0.000;2023-02-19T14:35:39;17.90;55.90
58993;DHT22;44782;0.000;0.000;2023-02-19T14:37:56;17.90;55.10
58993;DHT22;44782;0.000;0.000;2023-02-19T14:40:37;17.90;55.10
58993;DHT22;44782;0.000;0.000;2023-02-19T14:42:54;18.00;54.70
58993;DHT22;44782;0.000;0.000;2023-02-19T14:45:12;18.00;55.00
58993;DHT22;44782;0.000;0.000;2023-02-19T14:47:30;18.00;54.90
58993;DHT22;44782;0.000;0.000;2023-02-19T14:49:57;18.10;54.90
58993;DHT22;44782;0.000;0.000;2023-02-19T14:52:43;18.10;54.70
58993;DHT22;44782;0.000;0.000;2023-02-19T14:57:34;18.10;54.70
58993;DHT22;44782;0.000;0.000;2023-02-19T14:59:57;18.20;54.60
58993;DHT22;44782;0.000;0.000;2023-02-19T15:02:15;18.20;54.70
58993;DHT22;44782;0.000;0.000;2023-02-19T15:04:36;18.10;54.70
58993;DHT22;44782;0.000;0.000;2023-02-19T15:06:53;18.20;54.70
58993;DHT22;44782;0.000;0.000;2023-02-19T15:09:12;18.20;54.70
58993;DHT22;44782;0.000;0.000;2023-02-19T15:11:28;18.20;54.70
58993;DHT22;44782;0.000;0.000;2023-02-19T15:14:06;18.20;54.70
58993;DHT22;44782;0.000;0.000;2023-02-19T15:16:23;18.20;54.40
58993;DHT22;44782;0.000;0.000;2023-02-19T15:18:43;18.20;54.70
58993;DHT22;44782;0.000;0.000;2023-02-19T15:21:03;18.20;54.70
58993;DHT22;44782;0.000;0.000;2023-02-19T15:23:22;18.20;54.70
58993;DHT22;44782;0.000;0.000;2023-02-19T15:25:38;18.20;54.70
58993;DHT22;44782;0.000;0.000;2023-02-19T15:27:54;18.20;54.70
58993;DHT22;44782;0.000;0.000;2023-02-19T15:30:22;18.20;54.70
58993;DHT22;44782;0.000;0.000;2023-02-19T15:32:38;18.20;54.50
58993;DHT22;44782;0.000;0.000;2023-02-19T15:35:03;18.20;54.70
58993;DHT22;44782;0.000;0.000;2023-02-19T15:37:19;18.20;54.50
58993;DHT22;44782;0.000;0.000;2023-02-19T15:39:43;18.20;54.70
58993;DHT22;44782;0.000;0.000;2023-02-19T15:42:01;18.20;54.60
58993;DHT22;44782;0.000;0.000;2023-02-19T15:46:49;18.20;54.40
58993;DHT22;44782;0.000;0.000;2023-02-19T15:49:12;18.20;54.70
58993;DHT22;44782;0.000;0.000;2023-02-19T15:51:56;18.10;54.60
58993;DHT22;44782;0.000;0.000;2023-02-19T15:54:32;18.20;54.50
58993;DHT22;44782;0.000;0.000;2023-02-19T15:56:55;18.10;54.50
58993;DHT22;44782;0.000;0.000;2023-02-19T15:59:35;18.10;54.70
58993;DHT22;44782;0.000;0.000;2023-02-19T16:01:53;18.10;54.50
58993;DHT22;44782;0.000;0.000;2023-02-19T16:04:15;18.10;54.80
58993;DHT22;44782;0.000;0.000;2023-02-19T16:07:01;18.10;54.70
58993;DHT22;44782;0.000;0.000;2023-02-19T16:09:21;18.10;54.50
58993;DHT22;44782;0.000;0.000;2023-02-19T16:11:49;18.10;54.80
58993;DHT22;44782;0.000;0.000;2023-02-19T16:14:35;18.10;54.80
58993;DHT22;44782;0.000;0.000;2023-02-19T16:16:54;18.10;54.50
58993;DHT22;44782;0.000;0.000;2023-02-19T16:19:10;18.00;54.80
58993;DHT22;44782;0.000;0.000;2023-02-19T16:21:27;18.00;54.80
58993;DHT22;44782;0.000;0.000;2023-02-19T16:23:44;18.00;54.80
58993;DHT22;44782;0.000;0.000;2023-02-19T16:26:02;18.00;54.80
58993;DHT22;44782;0.000;0.000;2023-02-19T16:28:19;18.00;54.80
58993;DHT22;44782;0.000;0.000;2023-02-19T16:30:36;18.00;54.80
58993;DHT22;44782;0.000;0.000;2023-02-19T16:33:26;18.00;54.80
58993;DHT22;44782;0.000;0.000;2023-02-19T16:35:51;18.00;54.60
58993;DHT22;44782;0.000;0.000;2023-02-19T16:38:14;18.00;55.30
58993;DHT22;44782;0.000;0.000;2023-02-19T16:45:28;17.90;54.80
58993;DHT22;44782;0.000;0.000;2023-02-19T16:47:44;18.00;54.90
58993;DHT22;44782;0.000;0.000;2023-02-19T16:50:10;18.00;55.00
58993;DHT22;44782;0.000;0.000;2023-02-19T16:52:28;18.00;54.90
58993;DHT22;44782;0.000;0.000;2023-02-19T16:54:44;17.90;54.90
58993;DHT22;44782;0.000;0.000;2023-02-19T16:57:01;17.90;54.90
58993;DHT22;44782;0.000;0.000;2023-02-19T16:59:17;17.90;54.90
58993;DHT22;44782;0.000;0.000;2023-02-19T17:01:34;17.90;54.90
58993;DHT22;44782;0.000;0.000;2023-02-19T17:03:51;17.90;54.90
58993;DHT22;44782;0.000;0.000;2023-02-19T17:06:07;17.90;54.90
58993;DHT22;44782;0.000;0.000;2023-02-19T17:08:37;17.90;55.00
58993;DHT22;44782;0.000;0.000;2023-02-19T17:10:53;17.90;54.80